sensor_id;sensor_type;location;lat;lon;timestamp;P1;durP1;ratioP1;P2;durP2;ratioP2
86116;SDS011;76770;0.000;0.000;2024-03-08T00:02:14;3.67;;;2.30;;
86116;SDS011;76770;0.000;0.000;2024-03-08T00:04:40;2.92;;;2.00;;
86116;SDS011;76770;0.000;0.000;2024-03-08T00:07:07;4.32;;;2.53;;
86116;SDS011;76770;0.000;0.000;2024-03-08T00:09:33;4.28;;;2.20;;
86116;SDS011;76770;0.000;0.000;2024-03-08T00:11:59;5.47;;;2.30;;
86116;SDS011;76770;0.000;0.000;2024-03-08T00:14:25;4.45;;;2.30;;
86116;SDS011;76770;0.000;0.000;2024-03-08T00:16:51;3.92;;;2.20;;
86116;SDS011;76770;0.000;0.000;2024-03-08T00:19:18;3.28;;;2.17;;
86116;SDS011;76770;0.000;0.000;2024-03-08T00:21:44;3.43;;;2.30;;
86116;SDS011;76770;0.000;0.000;2024-03-08T00:24:10;4.10;;;2.42;;
86116;SDS011;76770;0.000;0.000;2024-03-08T00:26:37;3.83;;;2.20;;
86116;SDS011;76770;0.000;0.000;2024-03-08T00:29:03;3.70;;;2.20;;
86116;SDS011;76770;0.000;0.000;2024-03-08T00:31:29;3.80;;;2.25;;
86116;SDS011;76770;0.000;0.000;2024-03-08T00:33:56;4.50;;;2.47;;
86116;SDS011;76770;0.000;0.000;2024-03-08T00:36:22;3.28;;;2.20;;
86116;SDS011;76770;0.000;0.000;2024-03-08T00:38:48;3.63;;;2.03;;
86116;SDS011;76770;0.000;0.000;2024-03-08T00:41:14;3.60;;;2.15;;
86116;SDS011;76770;0.000;0.000;2024-03-08T00:43:40;3.70;;;2.25;;
86116;SDS011;76770;0.000;0.000;2024-03-08T00:46:06;3.25;;;2.30;;
86116;SDS011;76770;0.000;0.000;2024-03-08T00:48:32;4.18;;;2.38;;
86116;SDS011;76770;0.000;0.000;2024-03-08T00:50:59;3.00;;;2.03;;
86116;SDS011;76770;0.000;0.000;2024-03-08T00:53:25;3.22;;;2.20;;
86116;SDS011;76770;0.000;0.000;2024-03-08T00:55:51;3.63;;;2.20;;
86116;SDS011;76770;0.000;0.000;2024-03-08T00:58:16;3.20;;;1.98;;
86116;SDS011;76770;0.000;0.000;2024-03-08T01:00:42;2.90;;;2.00;;
86116;SDS011;76770;0.000;0.000;2024-03-08T01:03:09;3.03;;;2.10;;
86116;SDS011;76770;0.000;0.000;2024-03-08T01:05:35;2.90;;;2.10;;
86116;SDS011;76770;0.000;0.000;2024-03-08T01:08:01;3.08;;;2.00;;
86116;SDS011;76770;0.000;0.000;2024-03-08T01:10:28;3.20;;;2.10;;
86116;SDS011;76770;0.000;0.000;2024-03-08T01:12:54;3.47;;;2.00;;
86116;SDS011;76770;0.000;0.000;2024-03-08T01:15:21;3.00;;;2.10;;
86116;SDS011;76770;0.000;0.000;2024-03-08T01:17:47;2.83;;;2.00;;
86116;SDS011;76770;0.000;0.000;2024-03-08T01:20:13;2.85;;;2.00;;
86116;SDS011;76770;0.000;0.000;2024-03-08T01:22:40;2.90;;;2.00;;
86116;SDS011;76770;0.000;0.000;2024-03-08T01:25:06;3.35;;;2.00;;
86116;SDS011;76770;0.000;0.000;2024-03-08T01:27:33;3.63;;;2.20;;
86116;SDS011;76770;0.000;0.000;2024-03-08T01:30:00;3.65;;;2.20;;
86116;SDS011;76770;0.000;0.000;2024-03-08T01:32:29;3.40;;;2.00;;
86116;SDS011;76770;0.000;0.000;2024-03-08T01:34:55;2.83;;;2.00;;
86116;SDS011;76770;0.000;0.000;2024-03-08T01:37:21;3.30;;;2.05;;
86116;SDS011;76770;0.000;0.000;2024-03-08T01:39:47;3.17;;;2.03;;
86116;SDS011;76770;0.000;0.000;2024-03-08T01:42:13;2.78;;;1.90;;
86116;SDS011;76770;0.000;0.000;2024-03-08T01:44:42;2.97;;;2.10;;
86116;SDS011;76770;0.000;0.000;2024-03-08T01:47:08;3.40;;;2.10;;
86116;SDS011;76770;0.000;0.000;2024-03-08T01:49:35;2.72;;;2.03;;
86116;SDS011;76770;0.000;0.000;2024-03-08T01:52:01;2.70;;;1.90;;
86116;SDS011;76770;0.000;0.000;2024-03-08T01:54:27;3.13;;;2.05;;
86116;SDS011;76770;0.000;0.000;2024-03-08T01:56:53;3.20;;;2.00;;
86116;SDS011;76770;0.000;0.000;2024-03-08T01:59:19;2.77;;;1.90;;
86116;SDS011;76770;0.000;0.000;2024-03-08T02:01:45;3.22;;;2.10;;
86116;SDS011;76770;0.000;0.000;2024-03-08T02:04:11;2.85;;;2.10;;
86116;SDS011;76770;0.000;0.000;2024-03-08T02:06:37;3.33;;;2.20;;
86116;SDS011;76770;0.000;0.000;2024-03-08T02:09:03;2.87;;;2.00;;
86116;SDS011;76770;0.000;0.000;2024-03-08T02:11:33;3.22;;;2.22;;
86116;SDS011;76770;0.000;0.000;2024-03-08T02:14:01;3.08;;;2.13;;
86116;SDS011;76770;0.000;0.000;2024-03-08T02:16:27;3.35;;;2.00;;
86116;SDS011;76770;0.000;0.000;2024-03-08T02:18:53;3.25;;;2.10;;
86116;SDS011;76770;0.000;0.000;2024-03-08T02:21:19;3.38;;;2.00;;
86116;SDS011;76770;0.000;0.000;2024-03-08T02:23:45;2.88;;;2.10;;
86116;SDS011;76770;0.000;0.000;2024-03-08T02:26:11;3.47;;;2.05;;
86116;SDS011;76770;0.000;0.000;2024-03-08T02:28:37;2.85;;;2.03;;
86116;SDS011;76770;0.000;0.000;2024-03-08T02:31:03;3.47;;;2.40;;
86116;SDS011;76770;0.000;0.000;2024-03-08T02:33:33;2.95;;;2.08;;
86116;SDS011;76770;0.000;0.000;2024-03-08T02:35:59;3.30;;;2.17;;
86116;SDS011;76770;0.000;0.000;2024-03-08T02:38:25;3.63;;;2.17;;
86116;SDS011;76770;0.000;0.000;2024-03-08T02:40:52;3.38;;;2.25;;
86116;SDS011;76770;0.000;0.000;2024-03-08T02:43:18;3.22;;;2.10;;
86116;SDS011;76770;0.000;0.000;2024-03-08T02:45:44;3.15;;;2.17;;
86116;SDS011;76770;0.000;0.000;2024-03-08T02:48:11;2.50;;;1.73;;
86116;SDS011;76770;0.000;0.000;2024-03-08T02:50:37;3.45;;;2.17;;
86116;SDS011;76770;0.000;0.000;2024-03-08T02:53:05;2.90;;;2.20;;
86116;SDS011;76770;0.000;0.000;2024-03-08T02:55:31;3.03;;;2.10;;
86116;SDS011;76770;0.000;0.000;2024-03-08T02:58:00;3.10;;;2.08;;
86116;SDS011;76770;0.000;0.000;2024-03-08T03:00:26;2.90;;;2.07;;
86116;SDS011;76770;0.000;0.000;2024-03-08T03:02:53;2.63;;;2.00;;
86116;SDS011;76770;0.000;0.000;2024-03-08T03:05:22;3.28;;;2.20;;
86116;SDS011;76770;0.000;0.000;2024-03-08T03:07:48;2.63;;;1.97;;
86116;SDS011;76770;0.000;0.000;2024-03-08T03:10:18;2.87;;;1.97;;
86116;SDS011;76770;0.000;0.000;2024-03-08T03:12:44;2.95;;;2.20;;
86116;SDS011;76770;0.000;0.000;2024-03-08T03:15:11;3.40;;;2.20;;
86116;SDS011;76770;0.000;0.000;2024-03-08T03:17:37;2.50;;;1.90;;
86116;SDS011;76770;0.000;0.000;2024-03-08T03:20:07;2.42;;;1.90;;
86116;SDS011;76770;0.000;0.000;2024-03-08T03:22:38;3.00;;;2.10;;
86116;SDS011;76770;0.000;0.000;2024-03-08T03:25:06;3.00;;;2.00;;
86116;SDS011;76770;0.000;0.000;2024-03-08T03:27:32;2.80;;;1.87;;
86116;SDS011;76770;0.000;0.000;2024-03-08T03:29:58;2.57;;;1.97;;
86116;SDS011;76770;0.000;0.000;2024-03-08T03:32:44;2.70;;;1.90;;
86116;SDS011;76770;0.000;0.000;2024-03-08T03:35:12;2.95;;;2.03;;
86116;SDS011;76770;0.000;0.000;2024-03-08T03:37:38;2.60;;;1.95;;
86116;SDS011;76770;0.000;0.000;2024-03-08T03:40:05;2.70;;;1.95;;
86116;SDS011;76770;0.000;0.000;2024-03-08T03:42:33;2.60;;;1.90;;
86116;SDS011;76770;0.000;0.000;2024-03-08T03:44:59;2.87;;;2.00;;
86116;SDS011;76770;0.000;0.000;2024-03-08T03:47:25;2.88;;;2.08;;
86116;SDS011;76770;0.000;0.000;2024-03-08T03:49:52;2.80;;;1.70;;
86116;SDS011;76770;0.000;0.000;2024-03-08T03:52:19;2.78;;;1.90;;
86116;SDS011;76770;0.000;0.000;2024-03-08T03:54:45;2.63;;;1.90;;
86116;SDS011;76770;0.000;0.000;2024-03-08T03:57:11;2.70;;;2.00;;
86116;SDS011;76770;0.000;0.000;2024-03-08T03:59:37;3.05;;;1.92;;
86116;SDS011;76770;0.000;0.000;2024-03-08T04:02:03;2.58;;;1.88;;
86116;SDS011;76770;0.000;0.000;2024-03-08T04:04:30;2.72;;;1.92;;
86116;SDS011;76770;0.000;0.000;2024-03-08T04:06:56;3.00;;;2.10;;
86116;SDS011;76770;0.000;0.000;2024-03-08T04:09:23;2.85;;;2.00;;
86116;SDS011;76770;0.000;0.000;2024-03-08T04:11:49;2.97;;;1.90;;
86116;SDS011;76770;0.000;0.000;2024-03-08T04:14:18;2.70;;;1.92;;
86116;SDS011;76770;0.000;0.000;2024-03-08T04:16:44;2.83;;;1.98;;
86116;SDS011;76770;0.000;0.000;2024-03-08T04:19:10;3.20;;;2.10;;
86116;SDS011;76770;0.000;0.000;2024-03-08T04:21:36;2.40;;;1.80;;
86116;SDS011;76770;0.000;0.000;2024-03-08T04:24:02;2.65;;;1.88;;
86116;SDS011;76770;0.000;0.000;2024-03-08T04:26:29;3.25;;;2.08;;
86116;SDS011;76770;0.000;0.000;2024-03-08T04:28:55;2.73;;;1.90;;
86116;SDS011;76770;0.000;0.000;2024-03-08T04:31:21;3.00;;;2.10;;
86116;SDS011;76770;0.000;0.000;2024-03-08T04:33:47;2.55;;;2.00;;
86116;SDS011;76770;0.000;0.000;2024-03-08T04:36:13;2.67;;;1.88;;
86116;SDS011;76770;0.000;0.000;2024-03-08T04:38:42;2.60;;;1.97;;
86116;SDS011;76770;0.000;0.000;2024-03-08T04:41:08;3.38;;;2.10;;
86116;SDS011;76770;0.000;0.000;2024-03-08T04:43:35;2.55;;;2.00;;
86116;SDS011;76770;0.000;0.000;2024-03-08T04:46:01;2.93;;;2.00;;
86116;SDS011;76770;0.000;0.000;2024-03-08T04:48:28;2.90;;;2.05;;
86116;SDS011;76770;0.000;0.000;2024-03-08T04:50:54;2.33;;;1.80;;
86116;SDS011;76770;0.000;0.000;2024-03-08T04:53:21;2.72;;;2.00;;
86116;SDS011;76770;0.000;0.000;2024-03-08T04:55:47;3.25;;;2.10;;
86116;SDS011;76770;0.000;0.000;2024-03-08T04:58:13;2.75;;;1.98;;
86116;SDS011;76770;0.000;0.000;2024-03-08T05:00:39;3.00;;;2.07;;
86116;SDS011;76770;0.000;0.000;2024-03-08T05:03:05;2.50;;;1.98;;
86116;SDS011;76770;0.000;0.000;2024-03-08T05:05:31;2.78;;;2.00;;
86116;SDS011;76770;0.000;0.000;2024-03-08T05:07:58;2.80;;;2.10;;
86116;SDS011;76770;0.000;0.000;2024-03-08T05:10:24;3.00;;;2.08;;
86116;SDS011;76770;0.000;0.000;2024-03-08T05:12:50;3.03;;;2.10;;
86116;SDS011;76770;0.000;0.000;2024-03-08T05:15:16;2.97;;;2.00;;
86116;SDS011;76770;0.000;0.000;2024-03-08T05:17:42;2.92;;;1.90;;
86116;SDS011;76770;0.000;0.000;2024-03-08T05:20:10;3.28;;;2.10;;
86116;SDS011;76770;0.000;0.000;2024-03-08T05:22:38;2.72;;;2.00;;
86116;SDS011;76770;0.000;0.000;2024-03-08T05:25:05;3.28;;;2.05;;
86116;SDS011;76770;0.000;0.000;2024-03-08T05:27:33;2.65;;;2.00;;
86116;SDS011;76770;0.000;0.000;2024-03-08T05:29:59;2.55;;;1.88;;
86116;SDS011;76770;0.000;0.000;2024-03-08T05:32:25;2.72;;;2.00;;
86116;SDS011;76770;0.000;0.000;2024-03-08T05:34:51;3.20;;;1.92;;
86116;SDS011;76770;0.000;0.000;2024-03-08T05:37:17;3.20;;;2.30;;
86116;SDS011;76770;0.000;0.000;2024-03-08T05:39:45;3.22;;;2.20;;
86116;SDS011;76770;0.000;0.000;2024-03-08T05:42:11;3.38;;;2.20;;
86116;SDS011;76770;0.000;0.000;2024-03-08T05:44:37;2.50;;;2.00;;
86116;SDS011;76770;0.000;0.000;2024-03-08T05:47:05;3.08;;;2.10;;
86116;SDS011;76770;0.000;0.000;2024-03-08T05:49:32;2.75;;;2.15;;
86116;SDS011;76770;0.000;0.000;2024-03-08T05:51:59;2.95;;;2.20;;
86116;SDS011;76770;0.000;0.000;2024-03-08T05:54:25;3.10;;;2.13;;
86116;SDS011;76770;0.000;0.000;2024-03-08T05:56:52;3.08;;;1.90;;
86116;SDS011;76770;0.000;0.000;2024-03-08T05:59:19;3.00;;;2.20;;
86116;SDS011;76770;0.000;0.000;2024-03-08T06:01:45;2.90;;;2.00;;
86116;SDS011;76770;0.000;0.000;2024-03-08T06:04:12;2.88;;;2.17;;
86116;SDS011;76770;0.000;0.000;2024-03-08T06:06:39;2.60;;;2.00;;
86116;SDS011;76770;0.000;0.000;2024-03-08T06:09:05;3.17;;;2.22;;
86116;SDS011;76770;0.000;0.000;2024-03-08T06:11:36;3.22;;;2.30;;
86116;SDS011;76770;0.000;0.000;2024-03-08T06:14:03;3.00;;;2.28;;
86116;SDS011;76770;0.000;0.000;2024-03-08T06:16:29;3.35;;;2.40;;
86116;SDS011;76770;0.000;0.000;2024-03-08T06:18:56;4.10;;;2.38;;
86116;SDS011;76770;0.000;0.000;2024-03-08T06:21:22;3.00;;;2.30;;
86116;SDS011;76770;0.000;0.000;2024-03-08T06:23:51;3.40;;;2.20;;
86116;SDS011;76770;0.000;0.000;2024-03-08T06:26:17;2.63;;;2.05;;
86116;SDS011;76770;0.000;0.000;2024-03-08T06:28:43;2.90;;;2.30;;
86116;SDS011;76770;0.000;0.000;2024-03-08T06:31:09;2.90;;;2.10;;
86116;SDS011;76770;0.000;0.000;2024-03-08T06:33:36;2.90;;;2.30;;
86116;SDS011;76770;0.000;0.000;2024-03-08T06:36:02;2.83;;;2.17;;
86116;SDS011;76770;0.000;0.000;2024-03-08T06:38:28;2.70;;;2.00;;
86116;SDS011;76770;0.000;0.000;2024-03-08T06:40:55;2.67;;;2.00;;
86116;SDS011;76770;0.000;0.000;2024-03-08T06:43:21;2.88;;;2.25;;
86116;SDS011;76770;0.000;0.000;2024-03-08T06:45:47;2.70;;;2.20;;
86116;SDS011;76770;0.000;0.000;2024-03-08T06:48:16;3.17;;;2.28;;
86116;SDS011;76770;0.000;0.000;2024-03-08T06:50:43;3.28;;;2.25;;
86116;SDS011;76770;0.000;0.000;2024-03-08T06:53:10;2.95;;;2.20;;
86116;SDS011;76770;0.000;0.000;2024-03-08T06:55:36;2.88;;;2.15;;
86116;SDS011;76770;0.000;0.000;2024-03-08T06:58:02;3.07;;;2.20;;
86116;SDS011;76770;0.000;0.000;2024-03-08T07:00:28;2.85;;;2.15;;
86116;SDS011;76770;0.000;0.000;2024-03-08T07:02:55;3.08;;;2.20;;
86116;SDS011;76770;0.000;0.000;2024-03-08T07:05:26;3.30;;;2.20;;
86116;SDS011;76770;0.000;0.000;2024-03-08T07:07:52;3.00;;;2.10;;
86116;SDS011;76770;0.000;0.000;2024-03-08T07:10:19;2.50;;;1.90;;
86116;SDS011;76770;0.000;0.000;2024-03-08T07:12:45;2.47;;;1.80;;
86116;SDS011;76770;0.000;0.000;2024-03-08T07:15:11;2.55;;;1.75;;
86116;SDS011;76770;0.000;0.000;2024-03-08T07:17:39;2.28;;;1.70;;
86116;SDS011;76770;0.000;0.000;2024-03-08T07:20:06;2.90;;;1.70;;
86116;SDS011;76770;0.000;0.000;2024-03-08T07:22:36;2.47;;;1.83;;
86116;SDS011;76770;0.000;0.000;2024-03-08T07:25:04;3.55;;;1.60;;
86116;SDS011;76770;0.000;0.000;2024-03-08T07:27:33;2.58;;;1.90;;
86116;SDS011;76770;0.000;0.000;2024-03-08T07:30:01;2.30;;;1.70;;
86116;SDS011;76770;0.000;0.000;2024-03-08T07:32:27;3.08;;;1.80;;
86116;SDS011;76770;0.000;0.000;2024-03-08T07:34:55;2.67;;;1.80;;
86116;SDS011;76770;0.000;0.000;2024-03-08T07:37:21;2.85;;;1.75;;
86116;SDS011;76770;0.000;0.000;2024-03-08T07:39:47;2.30;;;1.70;;
86116;SDS011;76770;0.000;0.000;2024-03-08T07:42:13;2.83;;;1.70;;
86116;SDS011;76770;0.000;0.000;2024-03-08T07:44:39;2.53;;;1.70;;
86116;SDS011;76770;0.000;0.000;2024-03-08T07:47:05;2.47;;;1.70;;
86116;SDS011;76770;0.000;0.000;2024-03-08T07:49:34;2.30;;;1.70;;
86116;SDS011;76770;0.000;0.000;2024-03-08T07:52:00;2.40;;;1.80;;
86116;SDS011;76770;0.000;0.000;2024-03-08T07:54:26;2.67;;;1.80;;
86116;SDS011;76770;0.000;0.000;2024-03-08T07:56:52;2.90;;;1.75;;
86116;SDS011;76770;0.000;0.000;2024-03-08T07:59:18;3.35;;;1.70;;
86116;SDS011;76770;0.000;0.000;2024-03-08T08:01:46;3.50;;;1.60;;
86116;SDS011;76770;0.000;0.000;2024-03-08T08:04:12;2.83;;;1.80;;
86116;SDS011;76770;0.000;0.000;2024-03-08T08:06:39;3.55;;;1.58;;
86116;SDS011;76770;0.000;0.000;2024-03-08T08:09:08;2.67;;;1.70;;
86116;SDS011;76770;0.000;0.000;2024-03-08T08:11:41;2.35;;;1.70;;
86116;SDS011;76770;0.000;0.000;2024-03-08T08:14:10;2.97;;;1.70;;
86116;SDS011;76770;0.000;0.000;2024-03-08T08:16:36;2.55;;;1.73;;
86116;SDS011;76770;0.000;0.000;2024-03-08T08:19:03;3.47;;;1.60;;
86116;SDS011;76770;0.000;0.000;2024-03-08T08:21:34;3.00;;;1.80;;
86116;SDS011;76770;0.000;0.000;2024-03-08T08:24:02;3.88;;;1.80;;
86116;SDS011;76770;0.000;0.000;2024-03-08T08:26:28;2.50;;;1.67;;
86116;SDS011;76770;0.000;0.000;2024-03-08T08:28:54;3.03;;;2.00;;
86116;SDS011;76770;0.000;0.000;2024-03-08T08:31:20;3.03;;;1.93;;
86116;SDS011;76770;0.000;0.000;2024-03-08T08:33:46;2.70;;;1.90;;
86116;SDS011;76770;0.000;0.000;2024-03-08T08:36:14;2.73;;;1.90;;
86116;SDS011;76770;0.000;0.000;2024-03-08T08:38:40;3.50;;;1.85;;
86116;SDS011;76770;0.000;0.000;2024-03-08T08:41:09;2.58;;;1.90;;
86116;SDS011;76770;0.000;0.000;2024-03-08T08:43:36;2.92;;;1.92;;
86116;SDS011;76770;0.000;0.000;2024-03-08T08:46:03;3.10;;;1.92;;
86116;SDS011;76770;0.000;0.000;2024-03-08T08:48:29;2.90;;;1.90;;
86116;SDS011;76770;0.000;0.000;2024-03-08T08:50:56;3.20;;;2.03;;
86116;SDS011;76770;0.000;0.000;2024-03-08T08:53:22;2.83;;;2.00;;
86116;SDS011;76770;0.000;0.000;2024-03-08T08:55:48;2.72;;;2.00;;
86116;SDS011;76770;0.000;0.000;2024-03-08T08:58:14;2.83;;;1.98;;
86116;SDS011;76770;0.000;0.000;2024-03-08T09:00:40;2.92;;;1.98;;
86116;SDS011;76770;0.000;0.000;2024-03-08T09:03:07;2.60;;;2.00;;
86116;SDS011;76770;0.000;0.000;2024-03-08T09:05:33;2.42;;;1.98;;
86116;SDS011;76770;0.000;0.000;2024-03-08T09:07:59;2.92;;;2.00;;
86116;SDS011;76770;0.000;0.000;2024-03-08T09:10:25;2.60;;;1.95;;
86116;SDS011;76770;0.000;0.000;2024-03-08T09:12:52;3.38;;;2.10;;
86116;SDS011;76770;0.000;0.000;2024-03-08T09:15:19;3.15;;;2.00;;
86116;SDS011;76770;0.000;0.000;2024-03-08T09:17:46;2.83;;;1.90;;
86116;SDS011;76770;0.000;0.000;2024-03-08T09:20:13;2.87;;;1.97;;
86116;SDS011;76770;0.000;0.000;2024-03-08T09:22:40;2.90;;;2.00;;
86116;SDS011;76770;0.000;0.000;2024-03-08T09:25:06;2.80;;;2.10;;
86116;SDS011;76770;0.000;0.000;2024-03-08T09:27:34;3.20;;;2.10;;
86116;SDS011;76770;0.000;0.000;2024-03-08T09:30:00;2.53;;;2.07;;
86116;SDS011;76770;0.000;0.000;2024-03-08T09:32:26;3.28;;;2.00;;
86116;SDS011;76770;0.000;0.000;2024-03-08T09:34:52;2.70;;;1.98;;
86116;SDS011;76770;0.000;0.000;2024-03-08T09:37:18;3.70;;;2.30;;
86116;SDS011;76770;0.000;0.000;2024-03-08T09:39:44;3.05;;;2.28;;
86116;SDS011;76770;0.000;0.000;2024-03-08T09:42:11;2.95;;;2.10;;
86116;SDS011;76770;0.000;0.000;2024-03-08T09:44:44;3.22;;;2.10;;
86116;SDS011;76770;0.000;0.000;2024-03-08T09:47:11;2.80;;;1.93;;
86116;SDS011;76770;0.000;0.000;2024-03-08T09:49:39;3.80;;;2.10;;
86116;SDS011;76770;0.000;0.000;2024-03-08T09:52:05;3.20;;;2.22;;
86116;SDS011;76770;0.000;0.000;2024-03-08T09:54:32;3.03;;;2.05;;
86116;SDS011;76770;0.000;0.000;2024-03-08T09:56:58;2.83;;;2.10;;
86116;SDS011;76770;0.000;0.000;2024-03-08T09:59:24;2.88;;;2.20;;
86116;SDS011;76770;0.000;0.000;2024-03-08T10:01:51;2.70;;;2.10;;
86116;SDS011;76770;0.000;0.000;2024-03-08T10:04:17;3.00;;;2.10;;
86116;SDS011;76770;0.000;0.000;2024-03-08T10:06:45;2.83;;;2.10;;
86116;SDS011;76770;0.000;0.000;2024-03-08T10:09:12;2.85;;;1.95;;
86116;SDS011;76770;0.000;0.000;2024-03-08T10:11:39;2.70;;;2.03;;
86116;SDS011;76770;0.000;0.000;2024-03-08T10:14:07;3.10;;;2.15;;
86116;SDS011;76770;0.000;0.000;2024-03-08T10:16:33;2.70;;;2.00;;
86116;SDS011;76770;0.000;0.000;2024-03-08T10:19:00;2.80;;;2.15;;
86116;SDS011;76770;0.000;0.000;2024-03-08T10:21:29;3.08;;;2.17;;
86116;SDS011;76770;0.000;0.000;2024-03-08T10:23:55;2.63;;;1.95;;
86116;SDS011;76770;0.000;0.000;2024-03-08T10:26:22;2.80;;;2.10;;
86116;SDS011;76770;0.000;0.000;2024-03-08T10:28:48;2.50;;;1.95;;
86116;SDS011;76770;0.000;0.000;2024-03-08T10:31:15;3.08;;;2.13;;
86116;SDS011;76770;0.000;0.000;2024-03-08T10:33:41;2.90;;;2.10;;
86116;SDS011;76770;0.000;0.000;2024-03-08T10:36:08;3.00;;;2.27;;
86116;SDS011;76770;0.000;0.000;2024-03-08T10:38:35;3.25;;;2.28;;
86116;SDS011;76770;0.000;0.000;2024-03-08T10:41:02;3.28;;;2.30;;
86116;SDS011;76770;0.000;0.000;2024-03-08T10:43:31;2.90;;;2.00;;
86116;SDS011;76770;0.000;0.000;2024-03-08T10:46:10;3.10;;;2.20;;
86116;SDS011;76770;0.000;0.000;2024-03-08T10:48:42;2.90;;;2.05;;
86116;SDS011;76770;0.000;0.000;2024-03-08T10:51:09;2.65;;;2.10;;
86116;SDS011;76770;0.000;0.000;2024-03-08T10:53:36;2.40;;;2.00;;
86116;SDS011;76770;0.000;0.000;2024-03-08T10:56:06;3.30;;;2.30;;
86116;SDS011;76770;0.000;0.000;2024-03-08T10:58:34;2.63;;;2.10;;
86116;SDS011;76770;0.000;0.000;2024-03-08T11:01:00;2.78;;;2.00;;
86116;SDS011;76770;0.000;0.000;2024-03-08T11:08:41;3.08;;;2.00;;
86116;SDS011;76770;0.000;0.000;2024-03-08T11:14:42;3.17;;;1.90;;
86116;SDS011;76770;0.000;0.000;2024-03-08T11:16:55;2.90;;;2.10;;
86116;SDS011;76770;0.000;0.000;2024-03-08T11:21:50;3.25;;;1.98;;
86116;SDS011;76770;0.000;0.000;2024-03-08T11:24:22;2.97;;;2.10;;
86116;SDS011;76770;0.000;0.000;2024-03-08T11:26:49;3.05;;;2.03;;
86116;SDS011;76770;0.000;0.000;2024-03-08T11:32:08;2.83;;;2.00;;
86116;SDS011;76770;0.000;0.000;2024-03-08T11:34:38;2.88;;;2.10;;
86116;SDS011;76770;0.000;0.000;2024-03-08T11:37:06;3.75;;;1.88;;
86116;SDS011;76770;0.000;0.000;2024-03-08T11:39:38;2.47;;;1.85;;
86116;SDS011;76770;0.000;0.000;2024-03-08T11:42:05;2.50;;;1.95;;
86116;SDS011;76770;0.000;0.000;2024-03-08T11:44:31;2.75;;;1.98;;
86116;SDS011;76770;0.000;0.000;2024-03-08T11:46:57;2.15;;;1.65;;
86116;SDS011;76770;0.000;0.000;2024-03-08T11:49:23;2.42;;;1.92;;
86116;SDS011;76770;0.000;0.000;2024-03-08T11:51:51;2.63;;;1.90;;
86116;SDS011;76770;0.000;0.000;2024-03-08T11:54:17;2.50;;;1.95;;
86116;SDS011;76770;0.000;0.000;2024-03-08T11:56:44;2.90;;;2.00;;
86116;SDS011;76770;0.000;0.000;2024-03-08T11:59:13;2.53;;;1.90;;
86116;SDS011;76770;0.000;0.000;2024-03-08T12:01:39;2.50;;;1.85;;
86116;SDS011;76770;0.000;0.000;2024-03-08T12:04:06;2.45;;;1.80;;
86116;SDS011;76770;0.000;0.000;2024-03-08T12:06:38;2.47;;;1.85;;
86116;SDS011;76770;0.000;0.000;2024-03-08T12:09:08;2.92;;;2.00;;
86116;SDS011;76770;0.000;0.000;2024-03-08T12:11:35;2.28;;;1.85;;
86116;SDS011;76770;0.000;0.000;2024-03-08T12:14:01;2.55;;;1.90;;
86116;SDS011;76770;0.000;0.000;2024-03-08T12:16:27;2.78;;;1.90;;
86116;SDS011;76770;0.000;0.000;2024-03-08T12:18:53;2.42;;;1.90;;
86116;SDS011;76770;0.000;0.000;2024-03-08T12:21:20;2.72;;;1.90;;
86116;SDS011;76770;0.000;0.000;2024-03-08T12:23:51;2.95;;;1.90;;
86116;SDS011;76770;0.000;0.000;2024-03-08T12:26:27;2.20;;;1.80;;
86116;SDS011;76770;0.000;0.000;2024-03-08T12:28:53;3.58;;;1.88;;
86116;SDS011;76770;0.000;0.000;2024-03-08T12:31:22;2.10;;;1.70;;
86116;SDS011;76770;0.000;0.000;2024-03-08T12:33:51;2.50;;;1.80;;
86116;SDS011;76770;0.000;0.000;2024-03-08T12:36:17;2.70;;;1.83;;
86116;SDS011;76770;0.000;0.000;2024-03-08T12:38:45;2.42;;;1.77;;
86116;SDS011;76770;0.000;0.000;2024-03-08T12:41:14;2.40;;;1.80;;
86116;SDS011;76770;0.000;0.000;2024-03-08T12:43:40;2.88;;;1.90;;
86116;SDS011;76770;0.000;0.000;2024-03-08T12:46:07;2.38;;;1.80;;
86116;SDS011;76770;0.000;0.000;2024-03-08T12:48:37;2.50;;;1.90;;
86116;SDS011;76770;0.000;0.000;2024-03-08T12:51:05;2.17;;;1.73;;
86116;SDS011;76770;0.000;0.000;2024-03-08T12:53:32;2.63;;;1.90;;
86116;SDS011;76770;0.000;0.000;2024-03-08T12:55:58;2.30;;;1.88;;
86116;SDS011;76770;0.000;0.000;2024-03-08T12:58:24;2.30;;;1.70;;
86116;SDS011;76770;0.000;0.000;2024-03-08T13:00:51;2.40;;;1.73;;
86116;SDS011;76770;0.000;0.000;2024-03-08T13:03:17;2.25;;;1.70;;
86116;SDS011;76770;0.000;0.000;2024-03-08T13:05:43;2.80;;;1.80;;
86116;SDS011;76770;0.000;0.000;2024-03-08T13:08:10;2.20;;;1.70;;
86116;SDS011;76770;0.000;0.000;2024-03-08T13:10:40;2.78;;;1.80;;
86116;SDS011;76770;0.000;0.000;2024-03-08T13:13:09;2.03;;;1.50;;
86116;SDS011;76770;0.000;0.000;2024-03-08T13:15:35;2.40;;;1.88;;
86116;SDS011;76770;0.000;0.000;2024-03-08T13:18:01;2.20;;;1.70;;
86116;SDS011;76770;0.000;0.000;2024-03-08T13:20:28;3.00;;;1.83;;
86116;SDS011;76770;0.000;0.000;2024-03-08T13:22:54;2.60;;;1.77;;
86116;SDS011;76770;0.000;0.000;2024-03-08T13:25:21;2.45;;;1.80;;
86116;SDS011;76770;0.000;0.000;2024-03-08T13:27:48;2.20;;;1.60;;
86116;SDS011;76770;0.000;0.000;2024-03-08T13:30:14;2.20;;;1.57;;
86116;SDS011;76770;0.000;0.000;2024-03-08T13:32:43;2.40;;;1.73;;
86116;SDS011;76770;0.000;0.000;2024-03-08T13:35:12;2.83;;;1.85;;
86116;SDS011;76770;0.000;0.000;2024-03-08T13:37:39;2.70;;;2.00;;
86116;SDS011;76770;0.000;0.000;2024-03-08T13:40:06;2.80;;;1.80;;
86116;SDS011;76770;0.000;0.000;2024-03-08T13:42:36;2.60;;;1.75;;
86116;SDS011;76770;0.000;0.000;2024-03-08T13:45:03;2.25;;;1.63;;
86116;SDS011;76770;0.000;0.000;2024-03-08T13:47:29;2.42;;;1.80;;
86116;SDS011;76770;0.000;0.000;2024-03-08T13:49:56;2.78;;;1.90;;
86116;SDS011;76770;0.000;0.000;2024-03-08T13:52:22;2.70;;;1.70;;
86116;SDS011;76770;0.000;0.000;2024-03-08T13:54:50;2.40;;;1.70;;
86116;SDS011;76770;0.000;0.000;2024-03-08T13:57:16;2.53;;;1.80;;
86116;SDS011;76770;0.000;0.000;2024-03-08T13:59:43;4.03;;;1.67;;
86116;SDS011;76770;0.000;0.000;2024-03-08T14:02:09;8.25;;;3.90;;
86116;SDS011;76770;0.000;0.000;2024-03-08T14:04:38;11.80;;;4.93;;
86116;SDS011;76770;0.000;0.000;2024-03-08T14:07:06;8.90;;;4.72;;
86116;SDS011;76770;0.000;0.000;2024-03-08T14:09:33;6.80;;;4.50;;
86116;SDS011;76770;0.000;0.000;2024-03-08T14:12:05;14.55;;;4.50;;
86116;SDS011;76770;0.000;0.000;2024-03-08T14:14:32;7.03;;;4.43;;
86116;SDS011;76770;0.000;0.000;2024-03-08T14:17:00;15.50;;;4.35;;
86116;SDS011;76770;0.000;0.000;2024-03-08T14:19:26;6.45;;;4.07;;
86116;SDS011;76770;0.000;0.000;2024-03-08T14:21:53;6.95;;;4.03;;
86116;SDS011;76770;0.000;0.000;2024-03-08T14:24:19;8.20;;;4.30;;
86116;SDS011;76770;0.000;0.000;2024-03-08T14:26:45;7.68;;;4.32;;
86116;SDS011;76770;0.000;0.000;2024-03-08T14:29:14;7.15;;;4.38;;
86116;SDS011;76770;0.000;0.000;2024-03-08T14:31:40;7.93;;;4.40;;
86116;SDS011;76770;0.000;0.000;2024-03-08T14:34:08;6.38;;;4.35;;
86116;SDS011;76770;0.000;0.000;2024-03-08T14:36:34;5.93;;;3.88;;
86116;SDS011;76770;0.000;0.000;2024-03-08T14:39:00;8.30;;;4.43;;
86116;SDS011;76770;0.000;0.000;2024-03-08T14:41:26;7.63;;;4.00;;
86116;SDS011;76770;0.000;0.000;2024-03-08T14:43:52;5.70;;;3.80;;
86116;SDS011;76770;0.000;0.000;2024-03-08T14:46:18;8.52;;;4.35;;
86116;SDS011;76770;0.000;0.000;2024-03-08T14:48:48;7.40;;;3.85;;
86116;SDS011;76770;0.000;0.000;2024-03-08T14:51:16;8.60;;;3.80;;
86116;SDS011;76770;0.000;0.000;2024-03-08T14:53:45;7.10;;;3.58;;
86116;SDS011;76770;0.000;0.000;2024-03-08T14:56:11;6.55;;;3.10;;
86116;SDS011;76770;0.000;0.000;2024-03-08T14:58:44;5.50;;;2.58;;
86116;SDS011;76770;0.000;0.000;2024-03-08T15:01:11;4.47;;;2.47;;
86116;SDS011;76770;0.000;0.000;2024-03-08T15:03:40;4.60;;;2.47;;
86116;SDS011;76770;0.000;0.000;2024-03-08T15:06:07;4.03;;;2.30;;
86116;SDS011;76770;0.000;0.000;2024-03-08T15:08:37;4.00;;;2.28;;
86116;SDS011;76770;0.000;0.000;2024-03-08T15:11:04;3.67;;;2.20;;
86116;SDS011;76770;0.000;0.000;2024-03-08T15:13:31;3.58;;;2.03;;